createdAt,value
2022-10-17T00:00:01.067Z,99679.88
2022-10-17T00:00:13.980Z,99671.97
2022-10-17T00:00:29.008Z,99677.16
2022-10-17T00:00:42.276Z,99682.47
2022-10-17T00:00:55.479Z,99680.66
2022-10-17T00:01:08.389Z,99682.34
2022-10-17T00:01:26.013Z,99677.25
2022-10-17T00:01:55.153Z,99682.56
2022-10-17T00:02:10.310Z,99681.97
2022-10-17T00:02:43.062Z,99682.13
2022-10-17T00:03:15.927Z,99685.91
2022-10-17T00:03:28.858Z,99681.56
2022-10-17T00:03:41.844Z,99679.72
2022-10-17T00:03:55.038Z,99682.31
2022-10-17T00:04:27.853Z,99685.12
2022-10-17T00:05:00.544Z,99681.16
2022-10-17T00:05:33.341Z,99681.81
2022-10-17T00:05:47.215Z,99686.88
2022-10-17T00:06:06.133Z,99680.66
2022-10-17T00:06:18.953Z,99683.09
2022-10-17T00:06:32.237Z,99683.81
2022-10-17T00:06:45.497Z,99684.78
2022-10-17T00:06:58.447Z,99687.53
2022-10-17T00:07:11.274Z,99683.03
2022-10-17T00:07:26.259Z,99681.25
2022-10-17T00:07:39.793Z,99690.84
2022-10-17T00:07:54.933Z,99681.91
2022-10-17T00:08:09.451Z,99686.41
2022-10-17T00:08:22.774Z,99687.34
2022-10-17T00:08:36.996Z,99679.31
2022-10-17T00:08:52.027Z,99687.28
2022-10-17T00:09:07.020Z,99680.16
2022-10-17T00:09:19.812Z,99682.94
2022-10-17T00:09:32.659Z,99682.81
2022-10-17T00:09:47.744Z,99684.50
2022-10-17T00:10:00.970Z,99685.34
2022-10-17T00:10:13.974Z,99689.78
2022-10-17T00:10:34.924Z,99683.53
2022-10-17T00:11:00.852Z,99684.47
2022-10-17T00:11:33.600Z,99681.72
2022-10-17T00:12:06.360Z,99686.34
2022-10-17T00:12:39.128Z,99681.00
2022-10-17T00:12:52.201Z,99688.75
2022-10-17T00:13:11.036Z,99685.19
2022-10-17T00:13:23.989Z,99684.31
2022-10-17T00:13:36.872Z,99676.28
2022-10-17T00:13:51.986Z,99680.63
2022-10-17T00:14:04.844Z,99679.88
2022-10-17T00:14:18.171Z,99684.31
2022-10-17T00:14:30.975Z,99681.72
2022-10-17T00:14:45.725Z,99681.59
2022-10-17T00:15:19.349Z,99683.38
2022-10-17T00:15:32.225Z,99681.66
2022-10-17T00:15:45.258Z,99682.72
2022-10-17T00:16:06.601Z,99681.84
2022-10-17T00:17:02.577Z,99680.16
2022-10-17T00:17:19.385Z,99685.75
2022-10-17T00:17:32.411Z,99680.53
2022-10-17T00:17:45.484Z,99680.53
2022-10-17T00:17:59.423Z,99679.78
2022-10-17T00:18:12.796Z,99682.22
2022-10-17T00:18:25.960Z,99686.53
2022-10-17T00:18:41.647Z,99682.94
2022-10-17T00:19:10.733Z,99691.72
2022-10-17T00:19:25.663Z,99686.25
2022-10-17T00:19:46.652Z,99680.94
2022-10-17T00:20:00.259Z,99687.13
2022-10-17T00:20:35.533Z,99691.56
2022-10-17T00:20:48.430Z,99686.09
2022-10-17T00:21:20.524Z,99690.53
2022-10-17T00:21:53.699Z,99691.34
2022-10-17T00:22:06.556Z,99695.25
2022-10-17T00:22:19.584Z,99695.41
2022-10-17T00:22:52.579Z,99685.84
2022-10-17T00:23:05.388Z,99689.31
2022-10-17T00:23:18.581Z,99693.66
2022-10-17T00:23:31.851Z,99688.44
2022-10-17T00:23:45.357Z,99689.37
2022-10-17T00:24:03.045Z,99690.22
2022-10-17T00:24:15.969Z,99691.00
2022-10-17T00:24:34.100Z,99688.25
2022-10-17T00:25:07.252Z,99692.59
2022-10-17T00:25:40.834Z,99695.13
2022-10-17T00:26:04.998Z,99686.03
2022-10-17T00:26:18.611Z,99683.66
2022-10-17T00:26:31.528Z,99684.41
2022-10-17T00:26:44.457Z,99682.56
2022-10-17T00:26:57.634Z,99688.91
2022-10-17T00:27:10.606Z,99689.69
2022-10-17T00:27:23.937Z,99684.31
2022-10-17T00:27:37.893Z,99684.25
2022-10-17T00:27:50.892Z,99686.91
2022-10-17T00:28:11.554Z,99686.91
2022-10-17T00:28:28.570Z,99682.41
2022-10-17T00:28:42.600Z,99678.00
2022-10-17T00:28:56.652Z,99685.06
2022-10-17T00:29:09.616Z,99678.94
2022-10-17T00:29:23.416Z,99687.87
2022-10-17T00:29:36.438Z,99682.47
2022-10-17T00:29:50.272Z,99683.44
2022-10-17T00:30:04.335Z,99687.16
2022-10-17T00:30:17.236Z,99675.72
2022-10-17T00:30:32.995Z,99681.97
2022-10-17T00:30:45.845Z,99687.22
2022-10-17T00:31:04.902Z,99683.97
2022-10-17T00:31:37.642Z,99684.69
2022-10-17T00:31:55.219Z,99687.28
2022-10-17T00:32:28.277Z,99686.63
2022-10-17T00:32:41.600Z,99684.12
2022-10-17T00:33:14.570Z,99684.88
2022-10-17T00:33:44.586Z,99691.78
2022-10-17T00:34:06.530Z,99684.50
2022-10-17T00:34:19.578Z,99686.25
2022-10-17T00:34:36.289Z,99687.87
2022-10-17T00:34:49.515Z,99686.06
2022-10-17T00:35:07.708Z,99690.38
2022-10-17T00:35:20.579Z,99682.47
2022-10-17T00:35:33.765Z,99681.59
2022-10-17T00:35:46.567Z,99683.50
2022-10-17T00:36:18.860Z,99690.81
2022-10-17T00:57:07.429Z,99683.00
2022-10-17T00:57:20.236Z,99683.19
2022-10-17T00:57:33.674Z,99682.41
2022-10-17T00:57:48.420Z,99679.00
2022-10-17T00:58:21.652Z,99678.38
2022-10-17T00:58:36.547Z,99684.50
2022-10-17T00:58:50.409Z,99680.00
2022-10-17T00:59:03.780Z,99678.09
2022-10-17T00:59:20.873Z,99684.22
2022-10-17T00:59:34.455Z,99671.63
2022-10-17T00:59:52.948Z,99678.75
2022-10-17T01:00:25.668Z,99675.03
2022-10-17T01:00:54.428Z,99672.19
2022-10-17T01:01:08.539Z,99679.16
2022-10-17T01:01:21.836Z,99676.56
2022-10-17T01:01:35.240Z,99670.41
2022-10-17T01:02:08.754Z,99678.50
2022-10-17T01:02:23.719Z,99674.94
2022-10-17T01:02:56.473Z,99676.50
2022-10-17T01:03:14.602Z,99678.25
2022-10-17T01:03:31.393Z,99678.50
2022-10-17T01:03:46.356Z,99675.84
2022-10-17T01:04:01.379Z,99676.75
2022-10-17T01:04:34.124Z,99680.34
2022-10-17T01:04:55.913Z,99679.81
2022-10-17T01:05:28.851Z,99675.28
2022-10-17T01:06:01.744Z,99671.47
2022-10-17T01:06:17.079Z,99679.66
2022-10-17T01:06:46.185Z,99678.69
2022-10-17T01:06:59.192Z,99682.22
2022-10-17T01:07:12.596Z,99674.97
2022-10-17T01:07:26.848Z,99682.91
2022-10-17T01:07:40.189Z,99677.69
2022-10-17T01:07:53.341Z,99676.09
2022-10-17T01:08:06.293Z,99678.66
2022-10-17T01:08:19.097Z,99677.75
2022-10-17T01:08:32.091Z,99674.16
2022-10-17T01:08:45.134Z,99678.34
2022-10-17T01:08:58.093Z,99680.03
2022-10-17T01:09:30.997Z,99680.78
2022-10-17T01:09:44.845Z,99673.75
2022-10-17T01:09:59.832Z,99678.12
2022-10-17T01:10:13.057Z,99679.97
2022-10-17T01:10:30.163Z,99671.19
2022-10-17T01:11:08.820Z,99681.94
2022-10-17T01:12:11.440Z,99679.38
2022-10-17T01:12:47.403Z,99676.25
2022-10-17T01:13:24.343Z,99675.31
2022-10-17T01:14:16.588Z,99677.44
2022-10-17T01:14:42.528Z,99671.84
2022-10-17T01:15:11.740Z,99670.50
2022-10-17T01:15:46.838Z,99672.53
2022-10-17T01:16:12.089Z,99682.41
2022-10-17T01:16:27.114Z,99681.13
2022-10-17T01:17:18.638Z,99677.50
2022-10-17T01:17:37.038Z,99674.50
2022-10-17T01:18:11.289Z,99678.75
2022-10-17T01:18:57.309Z,99678.50
2022-10-17T01:19:26.953Z,99681.31
2022-10-17T01:20:21.127Z,99681.69
2022-10-17T01:21:12.311Z,99685.22
2022-10-17T01:21:36.601Z,99682.38
2022-10-17T01:22:22.861Z,99677.94
2022-10-17T01:22:39.146Z,99678.66
2022-10-17T01:22:55.000Z,99675.63
2022-10-17T01:23:36.035Z,99684.34
2022-10-17T01:23:54.530Z,99678.47
2022-10-17T01:24:49.471Z,99673.87
2022-10-17T01:25:26.962Z,99678.91
2022-10-17T01:26:06.223Z,99678.22
2022-10-17T01:27:06.752Z,99680.25
2022-10-17T01:28:12.298Z,99678.38
2022-10-17T01:28:34.327Z,99675.22
2022-10-17T01:29:18.705Z,99674.13
2022-10-17T01:29:57.726Z,99680.28
2022-10-17T01:30:45.459Z,99675.94
2022-10-17T01:31:04.631Z,99675.09
2022-10-17T01:31:19.857Z,99674.97
2022-10-17T01:31:38.450Z,99672.19
2022-10-17T01:32:15.555Z,99675.63
2022-10-17T01:32:54.207Z,99669.06
2022-10-17T01:33:12.610Z,99672.25
2022-10-17T01:34:08.112Z,99679.50
2022-10-17T02:01:06.089Z,99686.66
2022-10-17T02:11:23.356Z,99686.00
2022-10-17T02:11:37.454Z,99683.28
2022-10-17T02:18:40.235Z,99671.75
2022-10-17T02:18:58.998Z,99671.75
2022-10-17T02:19:47.197Z,99682.31
2022-10-17T02:20:04.134Z,99677.97
2022-10-17T02:20:36.844Z,99678.03
2022-10-17T02:20:59.433Z,99678.19
2022-10-17T02:21:46.190Z,99683.72
2022-10-17T02:22:18.507Z,99683.00
2022-10-17T02:22:37.396Z,99682.34
2022-10-17T02:23:02.856Z,99683.78
2022-10-17T02:23:24.516Z,99685.50
2022-10-17T02:23:57.726Z,99679.19
2022-10-17T02:24:27.083Z,99688.78
2022-10-17T02:25:03.789Z,99685.31
2022-10-17T02:25:34.929Z,99684.22
2022-10-17T02:25:55.753Z,99681.50
2022-10-17T02:26:34.086Z,99687.63
2022-10-17T02:26:56.595Z,99683.19
2022-10-17T02:27:14.091Z,99684.84
2022-10-17T02:27:52.804Z,99683.00
2022-10-17T02:28:13.701Z,99690.22
2022-10-17T02:28:35.600Z,99690.38
2022-10-17T02:29:07.020Z,99686.13
2022-10-17T02:29:44.866Z,99694.13
2022-10-17T02:30:01.485Z,99689.84
2022-10-17T02:30:17.903Z,99693.47
2022-10-17T02:30:33.697Z,99693.50
2022-10-17T02:30:59.168Z,99695.25
2022-10-17T02:31:15.743Z,99692.56
2022-10-17T02:31:42.627Z,99697.13
2022-10-17T02:31:59.844Z,99698.22
2022-10-17T02:32:17.856Z,99694.84
2022-10-17T02:32:55.519Z,99698.47
2022-10-17T02:33:12.351Z,99697.31
2022-10-17T02:33:32.884Z,99694.75
2022-10-17T02:33:49.713Z,99698.31
2022-10-17T02:34:50.921Z,99691.06
2022-10-17T02:35:05.553Z,99703.69
2022-10-17T02:35:19.783Z,99701.81
2022-10-17T02:35:51.901Z,99700.06
2022-10-17T02:36:11.167Z,99701.00
2022-10-17T02:36:26.701Z,99695.97
2022-10-17T02:36:51.774Z,99702.44
2022-10-17T02:37:07.583Z,99700.75
2022-10-17T02:37:23.477Z,99705.31
2022-10-17T02:37:36.404Z,99699.97
2022-10-17T02:37:49.243Z,99699.06
2022-10-17T02:38:02.483Z,99696.34
2022-10-17T02:38:15.319Z,99700.59
2022-10-17T02:38:28.362Z,99698.72
2022-10-17T02:38:41.241Z,99701.44
2022-10-17T02:38:55.042Z,99698.78
2022-10-17T02:39:08.179Z,99699.00
2022-10-17T02:39:40.502Z,99698.13
2022-10-17T02:39:54.759Z,99697.16
2022-10-17T02:40:07.863Z,99706.22
2022-10-17T02:40:40.693Z,99700.00
2022-10-17T02:40:53.982Z,99700.94
2022-10-17T02:41:10.779Z,99696.50
2022-10-17T02:41:23.768Z,99698.00
2022-10-17T02:41:36.758Z,99700.66
2022-10-17T02:41:50.996Z,99701.84
2022-10-17T02:42:06.221Z,99695.81
2022-10-17T02:42:20.077Z,99700.97
2022-10-17T02:42:33.005Z,99699.31
2022-10-17T02:42:45.979Z,99699.38
2022-10-17T02:42:59.212Z,99699.41
2022-10-17T02:43:21.227Z,99699.19
2022-10-17T02:43:35.002Z,99704.22
2022-10-17T02:43:49.007Z,99702.38
2022-10-17T02:44:02.635Z,99698.69
2022-10-17T02:44:15.491Z,99698.81
2022-10-17T02:44:28.808Z,99701.75
2022-10-17T02:44:44.667Z,99700.19
2022-10-17T02:44:59.893Z,99699.38
2022-10-17T02:45:13.330Z,99701.28
2022-10-17T02:45:27.763Z,99704.63
2022-10-17T02:45:40.603Z,99699.13
2022-10-17T02:45:54.496Z,99704.31
2022-10-17T02:46:08.197Z,99701.50
2022-10-17T02:46:22.208Z,99702.28
2022-10-17T02:46:36.287Z,99702.25
2022-10-17T02:46:53.037Z,99702.97
2022-10-17T02:47:24.640Z,99700.31
2022-10-17T02:47:43.226Z,99699.25
2022-10-17T02:48:26.815Z,99700.12
2022-10-17T02:48:44.471Z,99702.72
2022-10-17T02:49:07.985Z,99701.81
2022-10-17T02:49:31.600Z,99700.06
2022-10-17T02:49:47.546Z,99700.12
2022-10-17T02:50:02.749Z,99697.41
2022-10-17T02:50:15.673Z,99700.84
2022-10-17T02:50:51.906Z,99698.34
2022-10-17T02:51:22.997Z,99696.37
2022-10-17T02:51:45.621Z,99694.22
2022-10-17T02:52:04.710Z,99697.78
2022-10-17T02:52:42.166Z,99697.00
2022-10-17T02:53:15.849Z,99697.94
2022-10-17T02:53:38.072Z,99698.00
2022-10-17T02:54:21.097Z,99698.88
2022-10-17T02:54:54.514Z,99690.00
2022-10-17T02:55:14.364Z,99695.16
2022-10-17T02:55:31.694Z,99692.44
2022-10-17T02:55:59.141Z,99690.59
2022-10-17T02:56:16.775Z,99697.75
2022-10-17T02:56:55.565Z,99695.16
2022-10-17T02:57:21.231Z,99690.84
2022-10-17T02:57:42.534Z,99696.59
2022-10-17T02:57:57.361Z,99693.41
2022-10-17T02:58:20.001Z,99698.19
2022-10-17T02:58:33.353Z,99700.19
2022-10-17T02:58:48.608Z,99700.31
2022-10-17T02:59:45.907Z,99691.38
2022-10-17T03:00:04.959Z,99697.41
2022-10-17T03:00:18.496Z,99693.75
2022-10-17T03:00:31.326Z,99698.00
2022-10-17T03:00:44.629Z,99696.16
2022-10-17T03:00:58.364Z,99696.22
2022-10-17T03:01:11.567Z,99696.25
2022-10-17T03:01:24.603Z,99697.09
2022-10-17T03:01:38.210Z,99695.16
2022-10-17T03:01:51.648Z,99700.38
2022-10-17T03:02:06.074Z,99701.47
2022-10-17T03:02:19.998Z,99701.59
2022-10-17T03:02:45.339Z,99699.72
2022-10-17T03:03:03.016Z,99701.34
2022-10-17T03:03:28.968Z,99706.63
2022-10-17T03:03:42.068Z,99696.34
2022-10-17T03:04:08.602Z,99705.94
2022-10-17T03:04:21.892Z,99708.84
2022-10-17T03:04:35.159Z,99707.97
2022-10-17T03:04:48.371Z,99706.41
2022-10-17T03:05:01.174Z,99709.06
2022-10-17T03:05:20.012Z,99711.84
2022-10-17T03:05:33.112Z,99705.75
2022-10-17T03:05:45.914Z,99716.38
2022-10-17T03:06:18.670Z,99716.28
2022-10-17T03:06:31.558Z,99707.59
2022-10-17T03:06:44.764Z,99715.47
2022-10-17T03:06:57.644Z,99714.59
2022-10-17T03:07:10.753Z,99714.59
2022-10-17T03:07:23.672Z,99712.75
2022-10-17T03:07:37.599Z,99713.63
2022-10-17T03:07:51.701Z,99714.50
2022-10-17T03:08:06.341Z,99709.28
2022-10-17T03:08:20.082Z,99712.88
2022-10-17T03:08:33.487Z,99712.03
2022-10-17T03:08:46.421Z,99704.94
2022-10-17T03:08:59.691Z,99714.50
2022-10-17T03:09:12.513Z,99713.50
2022-10-17T03:09:25.840Z,99712.53
2022-10-17T03:09:39.145Z,99712.56
2022-10-17T03:09:54.209Z,99707.16
2022-10-17T03:10:08.180Z,99715.00
2022-10-17T03:10:52.686Z,99709.00
2022-10-17T03:11:05.582Z,99712.88
2022-10-17T03:11:20.804Z,99709.47
2022-10-17T03:11:34.420Z,99713.19
2022-10-17T03:11:47.670Z,99707.12
2022-10-17T03:12:00.595Z,99717.94
2022-10-17T03:12:15.405Z,99709.06
2022-10-17T03:12:28.490Z,99712.63
2022-10-17T03:12:57.894Z,99712.50
2022-10-17T03:13:10.948Z,99708.94
2022-10-17T03:13:25.705Z,99709.84
2022-10-17T03:13:39.900Z,99708.03
2022-10-17T03:13:52.905Z,99706.25
2022-10-17T03:14:07.012Z,99706.28
2022-10-17T03:14:19.995Z,99707.16
2022-10-17T03:14:32.815Z,99710.75
2022-10-17T03:14:46.051Z,99709.84
2022-10-17T03:14:58.853Z,99707.19
2022-10-17T03:15:31.581Z,99708.00
2022-10-17T03:15:49.641Z,99710.25
2022-10-17T03:16:02.487Z,99713.72
2022-10-17T03:16:17.539Z,99707.47
2022-10-17T03:16:34.700Z,99711.81
2022-10-17T03:16:47.537Z,99714.81
2022-10-17T03:17:02.643Z,99713.22
2022-10-17T03:17:15.539Z,99713.16
2022-10-17T03:17:28.361Z,99714.91
2022-10-17T03:17:43.201Z,99714.81
2022-10-17T03:18:00.492Z,99711.41
2022-10-17T03:18:13.713Z,99717.84
2022-10-17T03:18:26.606Z,99715.12
2022-10-17T03:19:10.805Z,99720.25
2022-10-17T03:19:23.989Z,99719.37
2022-10-17T03:19:36.823Z,99721.44
2022-10-17T03:19:51.706Z,99721.66
2022-10-17T03:20:05.633Z,99721.63
2022-10-17T03:20:18.422Z,99715.19
2022-10-17T03:20:47.090Z,99715.94
2022-10-17T03:21:00.659Z,99714.91
2022-10-17T03:21:13.668Z,99715.75
2022-10-17T03:21:26.525Z,99717.59
2022-10-17T03:21:39.811Z,99717.59
2022-10-17T03:21:56.603Z,99712.06
2022-10-17T03:22:09.439Z,99720.91
2022-10-17T03:22:42.178Z,99719.31
2022-10-17T03:22:55.081Z,99719.25
2022-10-17T03:23:08.122Z,99724.47
2022-10-17T03:23:21.322Z,99721.84
2022-10-17T03:23:53.144Z,99723.69
2022-10-17T03:24:07.240Z,99721.84
2022-10-17T03:24:20.102Z,99721.72
2022-10-17T03:24:33.028Z,99721.72
2022-10-17T03:24:45.925Z,99716.41
2022-10-17T03:24:59.885Z,99726.87
2022-10-17T03:25:13.051Z,99720.69
2022-10-17T03:25:26.138Z,99725.91
2022-10-17T03:25:41.084Z,99724.09
2022-10-17T03:25:54.907Z,99725.84
2022-10-17T03:26:29.513Z,99725.28
2022-10-17T03:26:44.294Z,99724.50
2022-10-17T03:26:59.324Z,99722.81
2022-10-17T03:27:12.646Z,99726.31
2022-10-17T03:27:25.833Z,99726.19
2022-10-17T03:27:39.210Z,99729.63
2022-10-17T03:27:52.693Z,99735.69
2022-10-17T03:28:06.020Z,99724.00
2022-10-17T03:28:18.893Z,99729.19
2022-10-17T03:28:31.754Z,99727.31
2022-10-17T03:28:45.013Z,99732.66
2022-10-17T03:28:58.428Z,99731.94
2022-10-17T03:29:11.286Z,99729.31
2022-10-17T03:29:24.644Z,99731.16
2022-10-17T03:29:43.532Z,99728.50
2022-10-17T03:29:56.824Z,99729.31
2022-10-17T03:30:09.979Z,99726.53
2022-10-17T03:30:42.737Z,99723.78
2022-10-17T03:30:55.662Z,99723.75
2022-10-17T03:31:14.692Z,99727.25
2022-10-17T03:31:27.995Z,99732.53
2022-10-17T03:31:41.236Z,99724.56
2022-10-17T03:31:54.060Z,99732.56
2022-10-17T03:32:07.204Z,99729.09
2022-10-17T03:32:20.099Z,99723.69
2022-10-17T03:32:34.011Z,99730.78
2022-10-17T03:32:47.202Z,99728.97
2022-10-17T03:33:01.092Z,99729.88
2022-10-17T03:33:14.532Z,99731.78
2022-10-17T03:33:47.263Z,99727.63
2022-10-17T03:34:02.124Z,99729.72
2022-10-17T03:34:17.721Z,99729.72
2022-10-17T03:34:31.099Z,99730.81
2022-10-17T03:34:43.940Z,99729.84
2022-10-17T03:34:57.638Z,99732.38
2022-10-17T03:35:29.540Z,99729.75
2022-10-17T03:35:42.661Z,99733.25
2022-10-17T03:35:55.604Z,99738.25
2022-10-17T03:36:12.997Z,99743.50
2022-10-17T03:36:26.180Z,99732.94
2022-10-17T03:36:39.082Z,99732.88
2022-10-17T03:36:52.003Z,99738.28
2022-10-17T03:37:05.997Z,99733.87
2022-10-17T03:37:23.486Z,99733.81
2022-10-17T03:37:36.439Z,99732.97
2022-10-17T03:37:51.407Z,99733.94
2022-10-17T03:38:04.684Z,99736.47
2022-10-17T03:38:18.357Z,99741.72
2022-10-17T03:38:54.218Z,99739.16
2022-10-17T03:39:08.159Z,99739.09
2022-10-17T03:39:25.097Z,99734.72
2022-10-17T03:39:37.959Z,99735.72
2022-10-17T03:39:51.694Z,99741.97
2022-10-17T03:40:05.294Z,99737.59
2022-10-17T03:40:18.635Z,99733.25
2022-10-17T03:40:35.424Z,99741.19
2022-10-17T03:40:55.312Z,99737.72
2022-10-17T03:41:08.699Z,99744.53
2022-10-17T03:41:21.658Z,99741.06
2022-10-17T03:42:05.646Z,99731.47
2022-10-17T03:42:20.729Z,99737.62
2022-10-17T03:42:34.484Z,99743.84
2022-10-17T03:42:47.313Z,99740.09
2022-10-17T03:43:00.184Z,99742.00
2022-10-17T03:43:12.987Z,99738.62
2022-10-17T03:43:34.446Z,99739.59
2022-10-17T03:43:54.013Z,99741.50
2022-10-17T03:44:26.806Z,99747.09
2022-10-17T03:44:40.114Z,99747.13
2022-10-17T03:44:54.095Z,99746.34
2022-10-17T03:45:07.234Z,99742.56
2022-10-17T03:45:20.657Z,99745.22
2022-10-17T03:45:39.075Z,99745.09
2022-10-17T03:45:51.956Z,99743.41
2022-10-17T03:46:08.645Z,99742.50
2022-10-17T03:46:21.811Z,99751.44
2022-10-17T03:47:09.220Z,99745.09
2022-10-17T03:47:24.858Z,99747.34
2022-10-17T03:47:37.724Z,99746.50
2022-10-17T03:48:01.206Z,99746.41
2022-10-17T03:48:14.415Z,99746.19
2022-10-17T03:48:28.277Z,99752.16
2022-10-17T03:48:42.172Z,99748.53
2022-10-17T03:48:55.403Z,99752.00
2022-10-17T03:49:09.428Z,99751.28
2022-10-17T03:49:22.238Z,99748.78
2022-10-17T03:49:36.926Z,99747.00
2022-10-17T03:49:57.728Z,99754.00
2022-10-17T03:50:12.464Z,99753.22
2022-10-17T03:50:27.577Z,99755.13
2022-10-17T03:51:02.592Z,99755.94
2022-10-17T03:51:15.715Z,99750.28
2022-10-17T03:51:28.572Z,99752.00
2022-10-17T03:51:41.475Z,99755.66
2022-10-17T03:52:12.863Z,99749.41
2022-10-17T03:52:26.269Z,99751.06
2022-10-17T03:52:39.464Z,99749.25
2022-10-17T03:52:52.444Z,99748.31
2022-10-17T03:53:09.946Z,99749.97
2022-10-17T03:53:24.786Z,99746.19
2022-10-17T03:53:37.580Z,99749.53
2022-10-17T03:53:50.592Z,99751.34
2022-10-17T03:54:07.811Z,99755.94
2022-10-17T03:54:22.654Z,99750.56
2022-10-17T03:54:35.813Z,99753.38
2022-10-17T03:54:50.472Z,99753.47
2022-10-17T03:55:03.522Z,99754.38
2022-10-17T03:55:34.397Z,99748.03
2022-10-17T03:55:47.399Z,99748.19
2022-10-17T04:26:46.673Z,99772.91
2022-10-17T04:27:01.804Z,99773.69
2022-10-17T04:27:15.651Z,99772.87
2022-10-17T04:27:28.859Z,99775.62
2022-10-17T04:27:49.654Z,99773.97
2022-10-17T04:28:02.900Z,99774.75
2022-10-17T04:28:16.928Z,99782.81
2022-10-17T04:28:31.038Z,99778.44
2022-10-17T04:28:44.158Z,99773.97
2022-10-17T04:28:58.855Z,99780.09
2022-10-17T04:29:11.950Z,99779.16
2022-10-17T04:29:55.913Z,99777.53
2022-10-17T04:30:10.027Z,99780.06
2022-10-17T04:30:22.898Z,99781.00
2022-10-17T04:30:42.352Z,99779.22
2022-10-17T04:31:03.111Z,99779.06
2022-10-17T04:31:17.481Z,99775.78
2022-10-17T04:31:30.529Z,99780.28
2022-10-17T04:31:43.583Z,99774.91
2022-10-17T04:31:56.455Z,99775.81
2022-10-17T04:32:11.407Z,99775.84
2022-10-17T04:32:26.415Z,99779.28
2022-10-17T04:32:40.328Z,99784.34
2022-10-17T04:32:53.799Z,99773.78
2022-10-17T04:33:07.744Z,99779.03
2022-10-17T04:33:22.506Z,99777.16
2022-10-17T04:33:49.952Z,99780.75
2022-10-17T04:34:03.202Z,99782.47
2022-10-17T04:34:16.711Z,99779.03
2022-10-17T04:34:30.106Z,99775.38
2022-10-17T04:34:43.245Z,99785.09
2022-10-17T04:34:56.688Z,99785.97
2022-10-17T04:35:29.417Z,99782.31
2022-10-17T04:36:00.846Z,99784.78
2022-10-17T04:36:19.360Z,99787.56
2022-10-17T04:36:32.738Z,99788.69
2022-10-17T04:36:47.129Z,99787.84
2022-10-17T04:37:20.224Z,99786.22
2022-10-17T04:37:52.977Z,99791.81
2022-10-17T04:38:07.120Z,99786.47
2022-10-17T04:38:21.234Z,99781.19
2022-10-17T04:38:35.603Z,99781.97
2022-10-17T04:38:48.491Z,99789.88
2022-10-17T04:39:21.238Z,99780.97
2022-10-17T04:39:54.469Z,99782.81
2022-10-17T04:40:08.399Z,99789.88
2022-10-17T04:40:21.312Z,99790.84
2022-10-17T04:40:34.610Z,99788.22
2022-10-17T04:40:47.576Z,99791.00
2022-10-17T04:41:04.936Z,99786.47
2022-10-17T04:41:27.349Z,99789.78
2022-10-17T04:41:40.205Z,99778.34
2022-10-17T04:41:53.256Z,99787.97
2022-10-17T04:42:06.095Z,99784.38
2022-10-17T04:42:18.925Z,99786.94
2022-10-17T04:42:32.319Z,99788.69
2022-10-17T04:42:45.374Z,99784.34
2022-10-17T04:42:58.491Z,99781.81
2022-10-17T04:43:11.285Z,99781.72
2022-10-17T04:43:25.133Z,99786.25
2022-10-17T04:43:38.331Z,99785.38
2022-10-17T04:43:55.616Z,99789.63
2022-10-17T04:44:30.867Z,99787.00
2022-10-17T04:44:45.580Z,99785.16
2022-10-17T04:44:59.252Z,99791.34
2022-10-17T04:45:12.086Z,99787.00
2022-10-17T04:46:12.414Z,99785.31
2022-10-17T04:46:25.513Z,99789.88
2022-10-17T04:46:38.414Z,99787.41
2022-10-17T04:46:51.231Z,99782.97
2022-10-17T04:47:04.065Z,99785.63
2022-10-17T04:47:17.365Z,99785.56
2022-10-17T04:47:38.312Z,99788.13
2022-10-17T04:47:52.027Z,99788.81
2022-10-17T05:25:25.960Z,99823.00
2022-10-17T05:25:46.892Z,99825.69
2022-10-17T05:25:59.862Z,99813.13
2022-10-17T05:26:13.958Z,99820.97
2022-10-17T05:26:26.883Z,99826.28
2022-10-17T05:26:40.025Z,99820.88
2022-10-17T05:27:13.420Z,99817.44
2022-10-17T05:27:26.446Z,99827.09
2022-10-17T05:27:39.313Z,99827.91
2022-10-17T05:27:52.322Z,99820.75
2022-10-17T05:28:05.443Z,99824.25
2022-10-17T05:28:18.484Z,99819.63
2022-10-17T05:28:31.554Z,99825.84
2022-10-17T05:28:46.586Z,99829.38
2022-10-17T05:29:03.131Z,99818.78
2022-10-17T05:29:16.145Z,99820.75
2022-10-17T05:29:48.877Z,99828.63
2022-10-17T05:30:04.185Z,99826.16
2022-10-17T05:30:20.970Z,99834.25
2022-10-17T05:30:36.885Z,99829.81
2022-10-17T05:31:08.448Z,99833.34
2022-10-17T05:31:21.511Z,99832.56
2022-10-17T05:31:34.731Z,99830.81
2022-10-17T05:31:47.584Z,99832.63
2022-10-17T05:32:18.490Z,99836.28
2022-10-17T05:32:32.940Z,99830.12
2022-10-17T05:32:54.603Z,99830.97
2022-10-17T05:33:07.595Z,99833.37
2022-10-17T05:33:20.649Z,99837.62
2022-10-17T05:33:34.048Z,99833.22
2022-10-17T05:33:46.950Z,99834.88
2022-10-17T05:34:02.991Z,99832.22
2022-10-17T05:34:16.253Z,99833.84
2022-10-17T05:34:29.059Z,99830.31
2022-10-17T05:35:04.262Z,99832.94
2022-10-17T05:35:17.241Z,99829.47
2022-10-17T05:35:30.385Z,99832.06
2022-10-17T05:35:43.234Z,99831.13
2022-10-17T05:35:56.452Z,99822.25
2022-10-17T05:36:09.253Z,99837.06
2022-10-17T05:36:41.995Z,99834.37
2022-10-17T05:36:55.098Z,99830.63
2022-10-17T05:37:08.584Z,99829.72
2022-10-17T05:37:22.614Z,99831.50
2022-10-17T05:37:35.451Z,99827.97
2022-10-17T05:37:48.404Z,99829.09
2022-10-17T05:38:01.710Z,99831.94
2022-10-17T05:38:16.769Z,99835.38
2022-10-17T05:38:31.760Z,99834.63
2022-10-17T05:38:44.657Z,99832.00
2022-10-17T05:38:57.465Z,99835.63
2022-10-17T05:39:26.614Z,99833.03
2022-10-17T05:39:39.815Z,99832.09
2022-10-17T05:39:52.697Z,99841.84
2022-10-17T05:40:06.063Z,99835.66
2022-10-17T05:40:19.259Z,99838.38
2022-10-17T05:40:32.352Z,99833.94
2022-10-17T05:40:46.175Z,99833.13
2022-10-17T05:41:00.535Z,99836.75
2022-10-17T05:41:18.406Z,99838.59
2022-10-17T05:41:31.197Z,99836.09
2022-10-17T05:41:46.754Z,99839.50
2022-10-17T05:41:59.666Z,99830.59
2022-10-17T05:42:22.024Z,99835.81
2022-10-17T05:42:35.453Z,99834.06
2022-10-17T05:42:48.639Z,99835.88
2022-10-17T05:43:01.484Z,99844.78
2022-10-17T05:43:14.832Z,99838.59
2022-10-17T05:43:47.602Z,99842.09
2022-10-17T05:44:04.576Z,99835.38
2022-10-17T05:44:18.603Z,99840.03
2022-10-17T05:44:35.883Z,99836.34
2022-10-17T05:44:49.791Z,99841.56
2022-10-17T05:45:02.714Z,99838.97
2022-10-17T05:45:16.076Z,99833.00
2022-10-17T05:45:30.787Z,99836.47
2022-10-17T05:45:43.726Z,99844.19
2022-10-17T05:45:56.548Z,99840.44
2022-10-17T05:46:09.796Z,99847.41
2022-10-17T05:46:24.812Z,99849.13
2022-10-17T05:46:37.859Z,99847.47
2022-10-17T05:46:51.071Z,99846.78
2022-10-17T05:47:04.739Z,99847.75
2022-10-17T05:48:09.074Z,99851.06
2022-10-17T05:48:22.467Z,99850.31
2022-10-17T05:48:35.689Z,99845.88
2022-10-17T05:48:49.224Z,99847.66
2022-10-17T05:49:10.655Z,99845.03
2022-10-17T05:49:44.973Z,99849.47
2022-10-17T05:50:01.395Z,99852.38
2022-10-17T05:50:14.553Z,99847.06
2022-10-17T05:50:47.474Z,99851.22
2022-10-17T05:51:09.653Z,99857.06
2022-10-17T05:51:26.549Z,99851.69
2022-10-17T05:51:41.654Z,99856.94
2022-10-17T05:51:54.821Z,99857.06
2022-10-17T05:52:07.642Z,99862.41
2022-10-17T05:52:22.520Z,99857.19
2022-10-17T05:52:35.721Z,99849.37
2022-10-17T05:52:56.628Z,99852.12
2022-10-17T05:53:33.680Z,99844.22
2022-10-17T05:54:06.718Z,99860.66
2022-10-17T05:54:22.078Z,99861.56
2022-10-17T05:54:35.172Z,99857.91